This is the latest recevied weather packets stored in our database for station/object KC0AFB. If no packets are shown the sender has not sent any weather packets the latest 10 day(s).
| Time | Temp. | Humidity | Pressure | Rain* | Wind** | Luminosity | Snow |
|---|---|---|---|---|---|---|---|
| 1777886438 | 8.89° C | 59% | 1003.4 hPa | 0 mm | - | 0 W/m² | - |
| 1777886136 | 8.89° C | 59% | 1003.3 hPa | 0 mm | - | 0 W/m² | - |
| 1777885834 | 8.89° C | 59% | 1003.5 hPa | 0 mm | - | 0 W/m² | - |
| 1777885532 | 8.89° C | 61% | 1003.4 hPa | 0 mm | - | 0 W/m² | - |
| 1777885230 | 8.33° C | 67% | 1003.3 hPa | 0 mm | - | 0 W/m² | - |
| 1777884928 | 7.78° C | 73% | 1003.7 hPa | 0 mm | - | 0 W/m² | - |
| 1777884623 | 7.78° C | 76% | 1003.4 hPa | 0 mm | - | 0 W/m² | - |
| 1777884320 | 7.22° C | 77% | 1003.3 hPa | 0 mm | - | 0 W/m² | - |
| 1777884016 | 7.22° C | 77% | 1002.8 hPa | 0 mm | - | 0 W/m² | - |
| 1777883715 | 6.67° C | 79% | 1002.6 hPa | 0 mm | - | 0 W/m² | - |
| 1777883410 | 6.11° C | 81% | 1002.4 hPa | 0 mm | - | 0 W/m² | - |
| 1777883107 | 5.56° C | 84% | 1002.5 hPa | 0 mm | - | 0 W/m² | - |
| 1777882803 | 5.56° C | 84% | 1002.8 hPa | 0 mm | - | 0 W/m² | - |
| 1777882501 | 5.56° C | 84% | 1002.7 hPa | 0 mm | - | 0 W/m² | - |
| 1777882201 | 5.56° C | 82% | 1002.7 hPa | 0 mm | - | 0 W/m² | - |
| 1777881898 | 5.56° C | 82% | 1002.6 hPa | 0 mm | - | 0 W/m² | - |
| 1777881589 | 6.11° C | 81% | 1002.4 hPa | 0 mm | - | 0 W/m² | - |
| 1777881287 | 6.11° C | 81% | 1002.4 hPa | 0 mm | - | 0 W/m² | - |
| 1777880983 | 6.67° C | 80% | 1002.3 hPa | 0 mm | - | 0 W/m² | - |
| 1777880681 | 6.67° C | 81% | 1002 hPa | 0 mm | - | 0 W/m² | - |
| 1777880379 | 6.67° C | 81% | 1002.2 hPa | 0 mm | - | 0 W/m² | - |
| 1777880078 | 6.67° C | 80% | 1002 hPa | 0 mm | - | 0 W/m² | - |
| 1777879776 | 6.67° C | 79% | 1002.2 hPa | 0 mm | - | 0 W/m² | - |
| 1777879473 | 6.67° C | 80% | 1002.2 hPa | 0 mm | - | 0 W/m² | - |
| 1777879169 | 6.67° C | 79% | 1002.1 hPa | 0 mm | - | 0 W/m² | - |
* Rain latest hour (hover to see other rain measurements)
** Current wind speed in m/s (hover to see current wind gust speed)